createdAt,value
2018-03-17T00:00:42.929Z,3.43
2018-03-17T00:03:46.204Z,2.93
2018-03-17T00:06:50.222Z,3.63
2018-03-17T00:09:53.495Z,2.43
2018-03-17T00:12:56.761Z,3.27
2018-03-17T00:16:00.112Z,4.37
2018-03-17T00:19:03.390Z,4.73
2018-03-17T00:22:07.417Z,4.77
2018-03-17T00:25:11.457Z,2.43
2018-03-17T00:28:14.722Z,2.30
2018-03-17T00:31:18.749Z,3.17
2018-03-17T00:34:22.801Z,3.70
2018-03-17T00:37:26.055Z,2.40
2018-03-17T00:40:30.161Z,3.77
2018-03-17T00:43:34.187Z,2.43
2018-03-17T00:46:38.201Z,2.97
2018-03-17T00:49:42.225Z,2.00
2018-03-17T00:52:45.501Z,2.40
2018-03-17T00:55:48.927Z,5.28
2018-03-17T00:58:52.196Z,4.17
2018-03-17T01:01:55.452Z,3.97
2018-03-17T01:04:58.716Z,2.97
2018-03-17T01:08:01.988Z,2.40
2018-03-17T01:11:06.140Z,2.03
2018-03-17T01:14:09.449Z,3.90
2018-03-17T01:17:12.737Z,3.43
2018-03-17T01:20:16.040Z,2.30
2018-03-17T01:23:19.352Z,2.30
2018-03-17T01:26:22.817Z,3.70
2018-03-17T01:29:27.144Z,2.13
2018-03-17T01:32:30.831Z,2.23
2018-03-17T01:35:35.224Z,5.73
2018-03-17T01:38:39.591Z,3.13
2018-03-17T01:41:42.910Z,4.03
2018-03-17T01:44:46.185Z,2.20
2018-03-17T01:47:49.469Z,2.73
2018-03-17T01:50:53.567Z,2.05
2018-03-17T01:54:14.819Z,3.00
2018-03-17T01:57:18.128Z,3.43
2018-03-17T02:00:21.416Z,2.70
2018-03-17T02:03:25.439Z,3.70
2018-03-17T02:06:28.874Z,2.90
2018-03-17T02:09:32.157Z,2.83
2018-03-17T02:12:35.442Z,1.77
2018-03-17T02:15:38.730Z,2.60
2018-03-17T02:18:41.998Z,2.20
2018-03-17T02:21:45.281Z,3.47
2018-03-17T02:24:48.546Z,3.43
2018-03-17T02:27:51.813Z,4.30
2018-03-17T02:30:55.082Z,3.30
2018-03-17T02:33:58.369Z,1.67
2018-03-17T02:37:01.631Z,2.70
2018-03-17T02:40:04.905Z,2.50
2018-03-17T02:43:08.165Z,3.50
2018-03-17T02:46:11.441Z,2.57
2018-03-17T02:49:14.690Z,3.75
2018-03-17T02:52:17.974Z,2.00
2018-03-17T02:55:22.009Z,2.00
2018-03-17T02:58:25.273Z,3.33
2018-03-17T03:01:29.314Z,2.13
2018-03-17T03:04:32.613Z,2.50
2018-03-17T03:07:35.869Z,2.67
2018-03-17T03:10:39.919Z,5.37
2018-03-17T03:13:44.021Z,4.57
2018-03-17T03:16:50.985Z,2.77
2018-03-17T03:19:55.008Z,3.13
2018-03-17T03:22:58.268Z,2.53
2018-03-17T03:26:01.548Z,4.00
2018-03-17T03:29:04.901Z,2.80
2018-03-17T03:32:08.169Z,2.07
2018-03-17T03:35:11.549Z,3.53
2018-03-17T03:38:14.790Z,2.20
2018-03-17T03:41:18.091Z,2.27
2018-03-17T03:44:21.358Z,3.13
2018-03-17T03:47:24.629Z,2.17
2018-03-17T03:50:27.889Z,2.47
2018-03-17T03:53:31.938Z,2.10
2018-03-17T03:56:35.207Z,2.63
2018-03-17T03:59:39.251Z,2.30
2018-03-17T04:02:42.532Z,2.40
2018-03-17T04:05:45.831Z,2.05
2018-03-17T04:08:49.125Z,2.40
2018-03-17T04:11:53.154Z,2.67
2018-03-17T04:14:56.421Z,2.27
2018-03-17T04:18:00.450Z,2.10
2018-03-17T04:21:04.482Z,2.53
2018-03-17T04:24:07.845Z,2.90
2018-03-17T04:27:11.881Z,3.20
2018-03-17T04:30:15.155Z,2.97
2018-03-17T04:33:19.206Z,2.47
2018-03-17T04:36:22.482Z,3.67
2018-03-17T04:39:26.725Z,1.92
2018-03-17T04:42:30.804Z,6.23
2018-03-17T04:45:34.088Z,2.50
2018-03-17T04:48:37.393Z,2.03
2018-03-17T04:51:40.657Z,1.73
2018-03-17T04:54:43.934Z,2.60
2018-03-17T04:57:47.216Z,2.67
2018-03-17T05:00:50.492Z,3.53
2018-03-17T05:03:54.552Z,2.83
2018-03-17T05:06:57.826Z,2.40
2018-03-17T05:10:01.137Z,3.43
2018-03-17T05:13:04.375Z,3.90
2018-03-17T05:16:07.639Z,1.70
2018-03-17T05:19:10.919Z,1.47
2018-03-17T05:22:14.189Z,2.03
2018-03-17T05:25:17.459Z,3.00
2018-03-17T05:28:20.714Z,2.67
2018-03-17T05:31:23.995Z,17.47
2018-03-17T05:34:28.021Z,15.57
2018-03-17T05:37:31.292Z,7.30
2018-03-17T05:40:35.330Z,3.60
2018-03-17T05:43:38.619Z,3.83
2018-03-17T05:46:42.648Z,2.03
2018-03-17T05:49:45.924Z,3.15
2018-03-17T05:52:50.086Z,2.63
2018-03-17T05:55:53.386Z,3.00
2018-03-17T05:58:56.650Z,3.63
2018-03-17T06:02:00.074Z,2.90
2018-03-17T06:05:03.336Z,4.03
2018-03-17T06:08:07.373Z,4.33
2018-03-17T06:11:10.637Z,12.00
2018-03-17T06:14:14.773Z,13.90
2018-03-17T06:17:18.198Z,15.37
2018-03-17T06:20:21.453Z,11.70
2018-03-17T06:23:25.486Z,7.17
2018-03-17T06:26:29.533Z,5.27
2018-03-17T06:29:33.628Z,4.63
2018-03-17T06:32:36.912Z,3.80
2018-03-17T06:35:41.027Z,3.53
2018-03-17T06:38:46.285Z,3.53
2018-03-17T06:41:49.762Z,4.97
2018-03-17T06:44:53.823Z,4.20
2018-03-17T06:47:57.085Z,5.50
2018-03-17T06:51:01.137Z,2.43
2018-03-17T06:54:04.401Z,3.60
2018-03-17T06:57:07.677Z,3.03
2018-03-17T07:00:11.818Z,7.53
2018-03-17T07:03:15.085Z,3.10
2018-03-17T07:06:18.414Z,3.10
2018-03-17T07:09:21.684Z,3.72
2018-03-17T07:12:25.729Z,4.57
2018-03-17T07:15:29.123Z,4.33
2018-03-17T07:18:32.389Z,3.37
2018-03-17T07:21:35.920Z,4.33
2018-03-17T07:24:39.225Z,7.83
2018-03-17T07:27:42.486Z,8.83
2018-03-17T07:30:45.899Z,7.43
2018-03-17T07:33:49.316Z,8.67
2018-03-17T07:36:53.437Z,5.63
2018-03-17T07:39:56.728Z,4.97
2018-03-17T07:43:00.854Z,8.93
2018-03-17T07:46:04.348Z,7.40
2018-03-17T07:49:07.621Z,8.53
2018-03-17T07:52:10.896Z,9.30
2018-03-17T07:55:14.253Z,13.93
2018-03-17T07:58:17.518Z,10.47
2018-03-17T08:01:22.074Z,10.47
2018-03-17T08:04:25.354Z,8.90
2018-03-17T08:07:29.382Z,13.93
2018-03-17T08:10:33.417Z,11.23
2018-03-17T08:13:36.693Z,14.30
2018-03-17T08:16:40.293Z,13.85
2018-03-17T08:19:44.521Z,14.13
2018-03-17T08:22:47.882Z,15.70
2018-03-17T08:25:52.025Z,12.17
2018-03-17T08:28:56.199Z,11.10
2018-03-17T08:31:59.519Z,11.80
2018-03-17T08:35:02.827Z,13.53
2018-03-17T08:38:06.905Z,14.07
2018-03-17T08:41:10.258Z,14.93
2018-03-17T08:44:14.529Z,9.80
2018-03-17T08:47:18.164Z,12.47
2018-03-17T08:50:21.457Z,15.03
2018-03-17T08:53:24.785Z,12.97
2018-03-17T08:56:28.069Z,14.43
2018-03-17T08:59:32.106Z,14.93
2018-03-17T09:02:35.433Z,16.40
2018-03-17T09:05:38.769Z,16.43
2018-03-17T09:08:42.895Z,16.80
2018-03-17T09:11:46.924Z,15.53
2018-03-17T09:14:50.226Z,15.47
2018-03-17T09:17:53.558Z,14.27
2018-03-17T09:20:56.928Z,15.57
2018-03-17T09:24:00.666Z,14.27
2018-03-17T09:27:03.998Z,17.73
2018-03-17T09:30:08.798Z,15.27
2018-03-17T09:33:12.238Z,16.33
2018-03-17T09:36:16.410Z,18.73
2018-03-17T09:39:19.705Z,17.40
2018-03-17T09:42:23.073Z,19.20
2018-03-17T09:45:26.342Z,19.97
2018-03-17T09:48:29.973Z,18.07
2018-03-17T09:51:34.091Z,16.50
2018-03-17T09:54:38.130Z,17.63
2018-03-17T09:57:41.486Z,19.57
2018-03-17T10:00:45.634Z,18.43
2018-03-17T10:03:48.969Z,21.30
2018-03-17T10:06:52.232Z,21.93
2018-03-17T10:09:55.521Z,22.43
2018-03-17T10:12:58.793Z,23.90
2018-03-17T10:16:03.386Z,20.30
2018-03-17T10:19:06.945Z,20.53
2018-03-17T10:22:10.994Z,18.27
2018-03-17T10:25:14.380Z,21.30
2018-03-17T10:28:17.683Z,19.57
2018-03-17T10:31:21.066Z,23.00
2018-03-17T10:34:24.385Z,21.00
2018-03-17T10:37:27.703Z,21.07
2018-03-17T10:40:31.158Z,21.73
2018-03-17T10:43:34.446Z,19.43
2018-03-17T10:46:38.592Z,23.47
2018-03-17T10:49:41.875Z,24.47
2018-03-17T10:52:45.143Z,20.40
2018-03-17T10:55:49.227Z,21.40
2018-03-17T10:58:52.530Z,21.90
2018-03-17T11:02:10.694Z,24.67
2018-03-17T11:05:14.026Z,22.92
2018-03-17T11:08:17.299Z,20.83
2018-03-17T11:11:22.190Z,24.93
2018-03-17T11:14:25.639Z,22.43
2018-03-17T11:17:28.837Z,22.10
2018-03-17T11:20:32.869Z,18.95
2018-03-17T11:23:36.298Z,20.90
2018-03-17T11:26:40.897Z,17.97
2018-03-17T11:29:44.197Z,17.83
2018-03-17T11:32:47.533Z,23.00
2018-03-17T11:35:50.814Z,25.17
2018-03-17T11:38:54.157Z,21.13
2018-03-17T11:41:58.950Z,22.97
2018-03-17T11:45:02.565Z,19.67
2018-03-17T11:48:05.829Z,21.17
2018-03-17T11:51:09.089Z,20.53
2018-03-17T11:54:12.617Z,23.00
2018-03-17T11:57:15.975Z,22.37
2018-03-17T12:00:19.315Z,21.13
2018-03-17T12:03:22.613Z,28.13
2018-03-17T12:06:26.654Z,22.80
2018-03-17T12:09:30.011Z,18.80
2018-03-17T12:12:33.274Z,23.77
2018-03-17T12:15:36.743Z,23.17
2018-03-17T12:18:40.626Z,22.87
2018-03-17T12:21:43.921Z,18.02
2018-03-17T12:24:47.959Z,16.43
2018-03-17T12:27:51.229Z,18.83
2018-03-17T12:30:55.278Z,20.77
2018-03-17T12:33:58.549Z,18.33
2018-03-17T12:37:02.633Z,20.90
2018-03-17T12:40:06.178Z,20.00
2018-03-17T12:43:10.398Z,16.43
2018-03-17T12:46:13.722Z,16.43
2018-03-17T12:49:16.991Z,16.43
2018-03-17T12:52:21.111Z,15.57
2018-03-17T12:55:24.432Z,16.30
2018-03-17T12:58:27.705Z,16.70
2018-03-17T13:01:30.976Z,13.63
2018-03-17T13:04:34.374Z,12.43
2018-03-17T13:07:37.610Z,12.37
2018-03-17T13:10:40.897Z,13.55
2018-03-17T13:13:44.556Z,12.93
2018-03-17T13:16:47.808Z,12.43
2018-03-17T13:19:51.215Z,12.33
2018-03-17T13:23:12.377Z,9.97
2018-03-17T13:26:17.192Z,11.53
2018-03-17T13:29:20.436Z,12.80
2018-03-17T13:32:42.449Z,17.10
2018-03-17T13:36:03.885Z,14.18
2018-03-17T13:39:08.051Z,13.90
2018-03-17T13:42:11.329Z,15.23
2018-03-17T13:45:14.718Z,17.30
2018-03-17T13:48:17.986Z,14.73
2018-03-17T13:51:22.762Z,14.70
2018-03-17T13:54:26.514Z,15.40
2018-03-17T13:57:29.781Z,18.47
2018-03-17T14:00:33.051Z,18.63
2018-03-17T14:03:37.076Z,17.97
2018-03-17T14:06:40.365Z,16.90
2018-03-17T14:09:43.790Z,19.23
2018-03-17T14:12:47.173Z,21.93
2018-03-17T14:15:51.262Z,20.00
2018-03-17T14:18:55.391Z,23.33
2018-03-17T14:21:59.420Z,21.10
2018-03-17T14:25:02.697Z,17.83
2018-03-17T14:28:06.721Z,18.90
2018-03-17T14:31:09.995Z,19.92
2018-03-17T14:34:13.261Z,16.73
2018-03-17T14:37:16.580Z,16.70
2018-03-17T14:40:20.118Z,19.00
2018-03-17T14:43:23.439Z,18.90
2018-03-17T14:46:26.761Z,21.87
2018-03-17T14:49:30.062Z,19.03
2018-03-17T14:52:33.330Z,25.67
2018-03-17T14:55:36.608Z,21.30
2018-03-17T14:58:40.637Z,20.97
2018-03-17T15:01:43.934Z,23.08
2018-03-17T15:04:47.215Z,27.80
2018-03-17T15:07:50.511Z,23.87
2018-03-17T15:10:53.822Z,24.97
2018-03-17T15:13:57.122Z,21.30
2018-03-17T15:17:00.413Z,24.63
2018-03-17T15:20:04.452Z,21.60
2018-03-17T15:23:07.745Z,19.77
2018-03-17T15:26:11.049Z,26.87
2018-03-17T15:29:14.435Z,21.40
2018-03-17T15:32:17.729Z,27.07
2018-03-17T15:35:21.000Z,25.88
2018-03-17T15:38:24.262Z,27.53
2018-03-17T15:41:27.526Z,23.87
2018-03-17T15:44:31.608Z,27.15
2018-03-17T15:47:34.877Z,25.83
2018-03-17T15:50:38.238Z,26.00
2018-03-17T15:53:41.518Z,28.10
2018-03-17T15:56:45.547Z,27.87
2018-03-17T15:59:48.865Z,26.50
2018-03-17T16:02:52.271Z,29.57
2018-03-17T16:05:55.551Z,28.87
2018-03-17T16:08:59.608Z,27.00
2018-03-17T16:12:03.662Z,27.60
2018-03-17T16:15:07.754Z,30.90
2018-03-17T16:18:11.024Z,27.93
2018-03-17T16:21:14.330Z,30.23
2018-03-17T16:24:17.602Z,31.77
2018-03-17T16:27:20.884Z,28.30
2018-03-17T16:30:24.159Z,38.57
2018-03-17T16:33:27.748Z,28.40
2018-03-17T16:36:31.017Z,37.53
2018-03-17T16:39:34.290Z,23.57
2018-03-17T16:42:37.652Z,31.77
2018-03-17T16:45:41.716Z,33.83
2018-03-17T16:51:42.609Z,29.60
2018-03-17T16:54:45.948Z,28.02
2018-03-17T16:57:50.425Z,31.33
2018-03-17T17:00:53.695Z,31.60
2018-03-17T17:03:56.974Z,33.13
2018-03-17T17:07:00.254Z,28.47
2018-03-17T17:10:04.547Z,30.57
2018-03-17T17:13:08.627Z,37.07
2018-03-17T17:16:12.207Z,30.67
2018-03-17T17:19:16.241Z,31.77
2018-03-17T17:22:19.544Z,34.17
2018-03-17T17:25:22.845Z,31.27
2018-03-17T17:28:26.110Z,35.33
2018-03-17T17:31:30.156Z,33.00
2018-03-17T17:34:33.408Z,38.27
2018-03-17T17:37:37.435Z,33.57
2018-03-17T17:40:41.469Z,37.10
2018-03-17T17:43:45.975Z,32.07
2018-03-17T17:46:50.117Z,33.13
2018-03-17T17:49:53.396Z,31.90
2018-03-17T17:52:56.664Z,34.10
2018-03-17T17:55:59.950Z,36.25
2018-03-17T17:59:03.235Z,30.60
2018-03-17T18:02:06.510Z,30.27
2018-03-17T18:05:09.773Z,32.40
2018-03-17T18:08:13.079Z,37.20
2018-03-17T18:11:16.344Z,27.00
2018-03-17T18:14:19.690Z,26.53
2018-03-17T18:17:22.977Z,21.87
2018-03-17T18:20:26.242Z,31.63
2018-03-17T18:23:29.527Z,31.57
2018-03-17T18:26:32.786Z,32.40
2018-03-17T18:29:36.069Z,38.70
2018-03-17T18:32:39.349Z,31.17
2018-03-17T18:35:43.425Z,32.07
2018-03-17T18:38:46.705Z,27.47
2018-03-17T18:41:49.990Z,36.20
2018-03-17T18:44:53.259Z,38.47
2018-03-17T18:47:57.380Z,35.73
2018-03-17T18:51:02.259Z,34.20
2018-03-17T18:54:05.546Z,29.33
2018-03-17T18:57:08.921Z,28.13
2018-03-17T19:00:14.082Z,30.63
2018-03-17T19:03:17.392Z,33.47
2018-03-17T19:06:20.673Z,30.83
2018-03-17T19:09:24.840Z,25.98
2018-03-17T19:12:28.302Z,28.50
2018-03-17T19:15:31.596Z,27.40
2018-03-17T19:18:34.922Z,29.47
2018-03-17T19:21:38.198Z,32.90
2018-03-17T19:24:41.494Z,26.93
2018-03-17T19:27:44.789Z,29.57
2018-03-17T19:30:48.196Z,32.42
2018-03-17T19:33:51.733Z,27.57
2018-03-17T19:36:55.102Z,26.83
2018-03-17T19:39:58.496Z,24.87
2018-03-17T19:43:01.895Z,28.57
2018-03-17T19:46:06.108Z,30.23
2018-03-17T19:49:10.257Z,23.87
2018-03-17T19:52:23.049Z,26.00
2018-03-17T19:55:27.189Z,26.90
2018-03-17T19:58:30.523Z,23.57
2018-03-17T20:01:33.880Z,26.33
2018-03-17T20:04:37.179Z,28.87
2018-03-17T20:07:40.563Z,25.13
2018-03-17T20:10:44.597Z,27.93
2018-03-17T20:13:47.907Z,29.67
2018-03-17T20:16:51.278Z,25.37
2018-03-17T20:19:54.857Z,27.77
2018-03-17T20:22:59.625Z,32.30
2018-03-17T20:26:02.922Z,28.37
2018-03-17T20:29:06.942Z,26.03
2018-03-17T20:32:10.374Z,32.47
2018-03-17T20:35:13.645Z,24.03
2018-03-17T20:38:16.940Z,25.17
2018-03-17T20:41:20.359Z,27.53
2018-03-17T20:44:24.239Z,26.20
2018-03-17T20:47:27.642Z,26.60
2018-03-17T20:50:31.801Z,24.43
2018-03-17T20:53:35.170Z,22.07
2018-03-17T20:56:38.454Z,24.23
2018-03-17T20:59:41.745Z,25.20
2018-03-17T21:02:45.804Z,25.50
2018-03-17T21:05:49.159Z,23.90
2018-03-17T21:08:53.690Z,28.77
2018-03-17T21:11:56.962Z,31.30
2018-03-17T21:15:00.282Z,22.90
2018-03-17T21:18:04.313Z,23.03
2018-03-17T21:21:07.597Z,23.07
2018-03-17T21:24:11.708Z,27.33
2018-03-17T21:27:14.987Z,21.40
2018-03-17T21:30:19.850Z,23.90
2018-03-17T21:33:23.141Z,26.73
2018-03-17T21:36:27.343Z,27.47
2018-03-17T21:39:31.393Z,26.70
2018-03-17T21:42:34.715Z,22.57
2018-03-17T21:45:37.971Z,29.00
2018-03-17T21:48:41.265Z,26.73
2018-03-17T21:51:45.587Z,28.03
2018-03-17T21:54:48.879Z,22.55
2018-03-17T21:57:52.918Z,23.83
2018-03-17T22:00:56.215Z,27.90
2018-03-17T22:03:59.507Z,27.80
2018-03-17T22:07:02.999Z,26.57
2018-03-17T22:10:07.043Z,22.43
2018-03-17T22:13:10.616Z,25.33
2018-03-17T22:16:14.031Z,23.20
2018-03-17T22:19:17.306Z,30.20
2018-03-17T22:22:21.366Z,29.10
2018-03-17T22:25:24.646Z,23.83
2018-03-17T22:28:27.919Z,20.53
2018-03-17T22:31:31.966Z,22.80
2018-03-17T22:34:35.238Z,28.20
2018-03-17T22:37:38.535Z,30.03
2018-03-17T22:40:42.575Z,29.33
2018-03-17T22:43:46.043Z,30.50
2018-03-17T22:46:50.168Z,28.37
2018-03-17T22:49:54.378Z,30.37
2018-03-17T22:52:58.569Z,33.20
2018-03-17T22:56:01.842Z,34.03
2018-03-17T22:59:05.115Z,27.97
2018-03-17T23:02:08.404Z,32.27
2018-03-17T23:05:11.701Z,22.87
2018-03-17T23:08:14.995Z,23.37
2018-03-17T23:11:18.288Z,27.13
2018-03-17T23:14:22.317Z,25.43
2018-03-17T23:17:25.616Z,26.00
2018-03-17T23:20:28.976Z,24.45
2018-03-17T23:23:32.311Z,23.00
2018-03-17T23:26:35.593Z,27.13
2018-03-17T23:29:39.893Z,24.07
2018-03-17T23:32:43.933Z,22.07
2018-03-17T23:35:47.345Z,27.27
2018-03-17T23:38:50.636Z,26.43
2018-03-17T23:41:54.031Z,24.27
2018-03-17T23:44:57.545Z,29.70
2018-03-17T23:48:00.830Z,20.27
2018-03-17T23:51:04.418Z,27.33
2018-03-17T23:54:08.466Z,21.63
2018-03-17T23:57:11.765Z,26.67
